createdAt,value
2022-09-12T00:01:21.555Z,9.60
2022-09-12T00:03:51.828Z,9.50
2022-09-12T00:06:23.110Z,9.40
2022-09-12T00:09:00.006Z,9.40
2022-09-12T00:14:02.953Z,9.30
2022-09-12T00:16:30.851Z,10.10
2022-09-12T00:31:24.111Z,9.10
2022-09-12T00:36:24.058Z,9.10
2022-09-12T00:38:51.901Z,9.10
2022-09-12T00:41:40.018Z,9.10
2022-09-12T00:44:46.946Z,9.20
2022-09-12T00:47:38.454Z,9.20
2022-09-12T00:50:25.905Z,9.30
2022-09-12T00:52:58.038Z,9.30
2022-09-12T00:55:29.031Z,9.30
2022-09-12T00:58:34.702Z,9.40
2022-09-12T01:06:19.705Z,9.40
2022-09-12T01:08:48.440Z,9.40
2022-09-12T01:11:17.107Z,9.40
2022-09-12T01:13:45.766Z,9.40
2022-09-12T01:19:26.282Z,9.40
2022-09-12T01:22:33.105Z,9.40
2022-09-12T01:25:39.968Z,9.40
2022-09-12T01:28:46.810Z,9.40
2022-09-12T01:31:25.052Z,9.40
2022-09-12T01:34:32.031Z,9.40
2022-09-12T01:37:26.381Z,9.30
2022-09-12T01:40:19.077Z,9.40
2022-09-12T01:43:26.901Z,9.40
2022-09-12T01:46:02.558Z,9.30
2022-09-12T01:48:37.270Z,9.40
2022-09-12T01:51:12.011Z,9.30
2022-09-12T01:53:44.331Z,9.30
2022-09-12T01:56:22.627Z,9.20
2022-09-12T01:59:15.547Z,9.10
2022-09-12T02:01:55.195Z,9.20
2022-09-12T02:04:33.528Z,9.30
2022-09-12T02:07:24.049Z,9.30
2022-09-12T02:10:14.303Z,9.30
2022-09-12T02:12:48.877Z,9.40
2022-09-12T02:15:18.915Z,9.40
2022-09-12T02:17:49.988Z,9.40
2022-09-12T02:20:46.769Z,9.50
2022-09-12T02:23:20.970Z,9.50
2022-09-12T02:25:51.983Z,9.50
2022-09-12T02:28:31.355Z,9.50
2022-09-12T02:31:38.461Z,9.50
2022-09-12T02:34:48.425Z,9.50
2022-09-12T02:37:35.598Z,9.50
2022-09-12T02:44:59.086Z,9.50
2022-09-12T02:47:48.219Z,9.40
2022-09-12T02:55:17.853Z,9.30
2022-09-12T02:57:50.337Z,9.40
2022-09-12T03:03:24.992Z,9.40
2022-09-12T03:06:00.087Z,9.40
2022-09-12T03:08:54.104Z,9.30
2022-09-12T03:11:48.361Z,9.20
2022-09-12T03:14:52.035Z,9.10
2022-09-12T03:17:58.955Z,9.10
2022-09-12T03:21:11.934Z,9.00
2022-09-12T03:24:18.869Z,9.00
2022-09-12T03:27:25.842Z,9.00
2022-09-12T03:29:54.023Z,9.00
2022-09-12T04:14:24.147Z,9.00
2022-09-12T04:19:39.736Z,9.00
2022-09-12T04:46:53.932Z,9.00
2022-09-12T04:54:19.061Z,9.10
2022-09-12T04:56:49.156Z,9.20
2022-09-12T04:59:18.418Z,9.20
2022-09-12T05:04:13.667Z,9.30
2022-09-12T05:06:42.411Z,9.20
2022-09-12T05:09:12.800Z,9.30
2022-09-12T05:12:03.638Z,9.30
2022-09-12T05:14:42.969Z,9.40
2022-09-12T05:17:19.535Z,9.50
2022-09-12T05:27:50.615Z,9.70
2022-09-12T05:30:23.795Z,9.80
2022-09-12T05:32:55.240Z,9.90
2022-09-12T05:35:40.734Z,10.00
2022-09-12T05:38:20.830Z,10.10
2022-09-12T05:45:50.499Z,10.40
2022-09-12T05:51:04.333Z,10.60
2022-09-12T05:53:37.395Z,10.70
2022-09-12T05:56:22.443Z,10.90
2022-09-12T05:59:12.942Z,11.00
2022-09-12T06:08:20.499Z,11.40
2022-09-12T06:13:53.347Z,11.70
2022-09-12T06:16:29.904Z,11.70
2022-09-12T06:19:07.117Z,11.80
2022-09-12T06:21:38.881Z,11.80
2022-09-12T06:24:14.219Z,11.80
2022-09-12T06:32:32.483Z,12.20
2022-09-12T06:39:18.446Z,12.60
2022-09-12T06:41:37.608Z,12.30
2022-09-12T06:51:25.145Z,13.20
2022-09-12T07:04:43.218Z,13.80
2022-09-12T07:07:27.895Z,13.90
2022-09-12T07:10:11.823Z,14.00
2022-09-12T07:15:49.173Z,14.10
2022-09-12T07:19:03.965Z,14.20
2022-09-12T07:21:45.187Z,14.30
2022-09-12T07:24:32.524Z,14.10
2022-09-12T07:27:26.954Z,14.50
2022-09-12T07:37:07.100Z,14.60
2022-09-12T07:46:29.853Z,15.10
2022-09-12T07:52:34.279Z,15.50
2022-09-12T07:55:16.090Z,15.60
2022-09-12T08:06:04.972Z,15.60
2022-09-12T08:11:23.352Z,15.70
2022-09-12T08:14:30.051Z,15.70
2022-09-12T08:25:38.157Z,15.50
2022-09-12T08:34:13.482Z,15.60
2022-09-12T08:36:56.215Z,15.40
2022-09-12T08:46:26.189Z,16.10
2022-09-12T08:49:09.472Z,15.60
2022-09-12T08:52:01.950Z,15.50
2022-09-12T08:56:22.531Z,15.90
2022-09-12T08:58:48.631Z,16.30
2022-09-12T09:01:49.625Z,15.80
2022-09-12T09:05:13.739Z,15.50
2022-09-12T09:08:24.255Z,15.70
2022-09-12T09:11:22.891Z,16.00
2022-09-12T09:14:54.350Z,15.80
2022-09-12T09:21:03.255Z,16.30
2022-09-12T09:26:51.016Z,16.70
2022-09-12T09:30:05.559Z,16.40
2022-09-12T09:32:45.165Z,16.10
2022-09-12T09:35:23.851Z,15.90
2022-09-12T09:39:08.697Z,16.10
2022-09-12T09:42:15.007Z,16.40
2022-09-12T09:44:50.354Z,16.70
2022-09-12T09:47:22.609Z,16.80
2022-09-12T09:50:06.531Z,14.20
2022-09-12T09:59:09.208Z,16.10
2022-09-12T10:04:22.084Z,16.80
2022-09-12T10:06:52.442Z,16.70
2022-09-12T10:09:26.642Z,16.60
2022-09-12T10:12:04.577Z,16.90
2022-09-12T10:14:54.548Z,17.00
2022-09-12T10:18:01.072Z,17.10
2022-09-12T10:20:48.238Z,17.10
2022-09-12T10:23:41.211Z,17.30
2022-09-12T10:26:15.382Z,16.60
2022-09-12T10:31:48.933Z,16.20
2022-09-12T10:34:47.357Z,16.60
2022-09-12T10:37:49.385Z,17.10
2022-09-12T10:40:32.827Z,17.50
2022-09-12T10:46:24.018Z,17.30
2022-09-12T10:49:13.518Z,16.80
2022-09-12T10:54:13.352Z,16.40
2022-09-12T10:57:05.445Z,16.80
2022-09-12T11:00:17.189Z,16.90
2022-09-12T11:03:16.367Z,16.10
2022-09-12T11:09:20.186Z,17.00
2022-09-12T11:12:21.424Z,17.20
2022-09-12T11:15:16.472Z,17.30
2022-09-12T11:17:57.175Z,17.00
2022-09-12T11:20:51.677Z,17.10
2022-09-12T11:23:59.376Z,17.20
2022-09-12T11:27:06.717Z,17.10
2022-09-12T11:29:55.501Z,16.90
2022-09-12T11:35:55.271Z,17.50
2022-09-12T11:39:00.517Z,17.70
2022-09-12T11:41:38.585Z,17.60
2022-09-12T11:44:33.475Z,17.80
2022-09-12T11:47:13.723Z,18.00
2022-09-12T11:50:03.296Z,18.20
2022-09-12T11:52:37.058Z,18.10
2022-09-12T11:55:31.374Z,17.90
2022-09-12T11:58:05.486Z,17.40
2022-09-12T12:00:55.953Z,17.20
2022-09-12T12:03:47.969Z,17.20
2022-09-12T12:06:43.533Z,17.60
2022-09-12T12:09:16.077Z,18.00
2022-09-12T12:11:59.067Z,18.00
2022-09-12T12:14:59.461Z,18.10
2022-09-12T12:17:30.865Z,18.00
2022-09-12T12:20:08.589Z,18.00
2022-09-12T12:25:29.899Z,18.00
2022-09-12T12:28:06.893Z,18.10
2022-09-12T12:31:08.240Z,17.90
2022-09-12T12:33:58.212Z,17.90
2022-09-12T12:37:03.157Z,17.80
2022-09-12T12:40:21.267Z,18.10
2022-09-12T12:43:31.650Z,18.10
2022-09-12T12:46:03.055Z,17.60
2022-09-12T12:48:35.130Z,17.40
2022-09-12T12:51:40.271Z,17.40
2022-09-12T12:54:47.242Z,17.10
2022-09-12T12:57:52.073Z,17.00
2022-09-12T13:00:48.736Z,16.70
2022-09-12T13:03:31.958Z,16.70
2022-09-12T13:06:23.841Z,17.00
2022-09-12T13:16:01.116Z,17.60
2022-09-12T13:19:02.087Z,17.70
2022-09-12T13:21:48.060Z,17.60
2022-09-12T13:24:35.975Z,17.60
2022-09-12T13:27:53.185Z,17.50
2022-09-12T13:31:07.116Z,17.40
2022-09-12T13:34:03.074Z,17.40
2022-09-12T13:36:50.778Z,18.40
2022-09-12T13:40:04.098Z,17.30
2022-09-12T13:48:28.307Z,17.30
2022-09-12T13:51:12.610Z,17.10
2022-09-12T13:53:53.606Z,17.00
2022-09-12T13:59:48.902Z,16.70
2022-09-12T14:02:21.122Z,16.90
2022-09-12T14:08:22.515Z,17.30
2022-09-12T14:11:43.492Z,17.50
2022-09-12T14:14:49.360Z,17.50
2022-09-12T14:17:39.372Z,17.60
2022-09-12T14:20:36.094Z,17.60
2022-09-12T14:26:20.706Z,17.50
2022-09-12T14:35:27.333Z,17.10
2022-09-12T14:41:03.482Z,17.30
2022-09-12T14:43:43.128Z,17.40
2022-09-12T14:52:30.130Z,16.70
2022-09-12T14:55:28.143Z,16.60
2022-09-12T14:58:36.283Z,16.50
2022-09-12T15:01:32.083Z,16.50
2022-09-12T15:06:59.858Z,16.30
2022-09-12T15:09:46.445Z,16.20
2022-09-12T15:22:16.337Z,16.50
2022-09-12T15:32:15.264Z,16.20
2022-09-12T15:37:14.365Z,16.30
2022-09-12T15:39:46.829Z,16.40
2022-09-12T15:42:17.039Z,16.40
2022-09-12T15:44:50.661Z,16.30
2022-09-12T15:57:34.811Z,15.80
2022-09-12T16:02:32.651Z,15.70
2022-09-12T17:02:13.713Z,14.10
2022-09-12T17:19:29.959Z,13.70
2022-09-12T17:21:57.915Z,13.70
2022-09-12T17:29:52.367Z,13.50
2022-09-12T17:37:14.444Z,13.40
2022-09-12T17:47:07.402Z,13.40
2022-09-12T17:59:32.138Z,13.30
2022-09-12T18:04:46.434Z,13.10
2022-09-12T18:07:15.256Z,13.00
2022-09-12T18:12:11.249Z,13.00
2022-09-12T18:22:05.015Z,12.70
2022-09-12T18:32:10.171Z,12.50
2022-09-12T18:34:58.146Z,12.40
2022-09-12T18:37:37.300Z,12.30
2022-09-12T18:40:05.309Z,12.30
2022-09-12T18:50:10.988Z,12.10
2022-09-12T18:55:09.680Z,11.90
2022-09-12T19:00:59.368Z,11.80
2022-09-12T19:03:30.405Z,11.70
2022-09-12T19:06:13.449Z,11.80
2022-09-12T19:08:47.762Z,11.80
2022-09-12T19:13:48.422Z,11.90
2022-09-12T19:16:19.193Z,12.40
2022-09-12T19:21:23.590Z,12.80
2022-09-12T19:23:52.626Z,11.70
2022-09-12T19:26:21.517Z,11.70
2022-09-12T19:28:58.937Z,11.70
2022-09-12T19:34:09.533Z,11.60
2022-09-12T19:36:46.989Z,11.60
2022-09-12T19:39:16.545Z,11.60
2022-09-12T19:41:44.460Z,11.60
2022-09-12T19:44:25.311Z,11.60
2022-09-12T19:51:53.488Z,11.40
2022-09-12T20:11:34.873Z,11.00
2022-09-12T20:14:02.352Z,11.10
2022-09-12T20:19:01.969Z,10.90
2022-09-12T20:21:32.695Z,10.80
2022-09-12T20:24:02.011Z,10.90
2022-09-12T20:33:55.019Z,10.90
2022-09-12T20:36:22.998Z,10.90
2022-09-12T20:38:57.254Z,10.90
2022-09-12T20:41:25.703Z,10.70
2022-09-12T20:43:54.486Z,10.70
2022-09-12T20:46:22.963Z,10.60
2022-09-12T20:48:53.228Z,10.60
2022-09-12T20:51:21.811Z,10.60
2022-09-12T20:58:45.487Z,10.60
2022-09-12T21:01:14.419Z,10.60
2022-09-12T21:03:42.590Z,10.60
2022-09-12T21:06:12.689Z,10.50
2022-09-12T21:13:36.635Z,10.60
2022-09-12T21:16:24.243Z,10.60
2022-09-12T21:18:59.389Z,10.60
2022-09-12T21:21:27.425Z,10.40
2022-09-12T21:23:59.051Z,10.50
2022-09-12T21:41:15.602Z,10.20
2022-09-12T21:43:43.783Z,13.50
2022-09-12T21:46:11.747Z,10.20
2022-09-12T21:51:08.497Z,10.00
2022-09-12T21:56:07.359Z,10.00
2022-09-12T21:58:38.204Z,10.00
2022-09-12T22:01:08.758Z,9.90
2022-09-12T22:06:08.187Z,9.90
2022-09-12T22:08:40.415Z,12.40
2022-09-12T22:11:10.277Z,9.90
2022-09-12T22:13:41.884Z,9.90
2022-09-12T22:18:38.162Z,9.70
2022-09-12T22:21:09.569Z,9.60
2022-09-12T22:36:31.908Z,9.30
2022-09-12T22:39:00.885Z,9.40
2022-09-12T22:51:22.901Z,9.50
2022-09-12T23:06:32.420Z,9.40
2022-09-12T23:16:58.881Z,9.40
2022-09-12T23:24:45.822Z,9.20
2022-09-12T23:30:24.571Z,9.20
2022-09-12T23:33:00.704Z,9.10
2022-09-12T23:35:35.358Z,9.10
2022-09-12T23:49:51.190Z,9.10
2022-09-12T23:52:25.615Z,7.10
2022-09-12T23:55:16.153Z,9.00
